createdAt,value
2022-11-28T00:01:51.696Z,101759.95
2022-11-28T00:04:22.591Z,101753.94
2022-11-28T00:06:54.506Z,101753.94
2022-11-28T00:09:25.689Z,101757.38
2022-11-28T00:11:56.764Z,101758.27
2022-11-28T00:14:28.715Z,101753.09
2022-11-28T00:16:59.671Z,101754.87
2022-11-28T00:19:30.525Z,101757.45
2022-11-28T00:22:01.353Z,101750.59
2022-11-28T00:24:32.249Z,101745.42
2022-11-28T00:27:02.981Z,101754.87
2022-11-28T00:29:33.890Z,101749.00
2022-11-28T00:32:04.817Z,101753.13
2022-11-28T00:34:36.301Z,101745.31
2022-11-28T00:37:07.247Z,101741.00
2022-11-28T00:39:38.186Z,101747.86
2022-11-28T00:42:09.156Z,101745.35
2022-11-28T00:44:40.079Z,101742.80
2022-11-28T00:47:11.250Z,101736.94
2022-11-28T00:49:42.323Z,101748.05
2022-11-28T00:52:13.223Z,101738.53
2022-11-28T00:54:44.340Z,101736.80
2022-11-28T00:57:15.653Z,101742.88
2022-11-28T00:59:46.597Z,101739.41
2022-11-28T01:02:17.421Z,101743.69
2022-11-28T01:04:48.315Z,101739.34
2022-11-28T01:07:19.985Z,101740.19
2022-11-28T01:09:50.962Z,101738.45
2022-11-28T01:12:22.098Z,101734.14
2022-11-28T01:14:53.884Z,101740.12
2022-11-28T01:17:24.771Z,101737.56
2022-11-28T01:19:55.689Z,101738.42
2022-11-28T01:22:26.631Z,101738.45
2022-11-28T01:24:57.467Z,101732.41
2022-11-28T01:27:28.319Z,101746.20
2022-11-28T01:29:59.141Z,101748.00
2022-11-28T01:32:31.707Z,101741.07
2022-11-28T01:35:02.559Z,101742.88
2022-11-28T01:37:33.282Z,101740.30
2022-11-28T01:40:04.777Z,101741.18
2022-11-28T01:42:35.534Z,101742.98
2022-11-28T01:45:07.774Z,101738.48
2022-11-28T01:47:38.646Z,101741.95
2022-11-28T01:50:10.643Z,101739.30
2022-11-28T01:52:42.849Z,101740.75
2022-11-28T01:55:15.061Z,101736.28
2022-11-28T01:57:45.962Z,101743.98
2022-11-28T02:00:18.733Z,101747.38
2022-11-28T02:02:50.676Z,101758.63
2022-11-28T02:05:23.182Z,101754.34
2022-11-28T02:07:54.083Z,101748.26
2022-11-28T02:10:26.350Z,101751.25
2022-11-28T02:13:14.728Z,101752.53
2022-11-28T02:16:05.339Z,101756.66
2022-11-28T02:18:38.386Z,101756.46
2022-11-28T02:21:26.027Z,101763.27
2022-11-28T02:23:58.673Z,101765.73
2022-11-28T02:26:47.486Z,101770.77
2022-11-28T02:29:36.252Z,101781.90
2022-11-28T02:32:08.673Z,101778.34
2022-11-28T02:34:45.654Z,101780.08
2022-11-28T02:37:17.635Z,101775.64
2022-11-28T02:39:55.955Z,101778.17
2022-11-28T02:42:31.411Z,101781.64
2022-11-28T02:45:10.056Z,101783.30
2022-11-28T02:47:42.367Z,101781.35
2022-11-28T02:50:17.332Z,101794.23
2022-11-28T02:52:49.664Z,101783.00
2022-11-28T02:55:21.676Z,101790.69
2022-11-28T02:57:53.767Z,101795.84
2022-11-28T03:00:32.537Z,101790.77
2022-11-28T03:03:14.068Z,101804.50
2022-11-28T03:05:46.543Z,101796.19
2022-11-28T03:08:19.312Z,101793.48
2022-11-28T03:10:57.690Z,101807.09
2022-11-28T03:13:47.915Z,101806.20
2022-11-28T03:16:20.658Z,101811.36
2022-11-28T03:19:09.540Z,101806.24
2022-11-28T03:21:42.459Z,101800.06
2022-11-28T03:24:20.946Z,101805.09
2022-11-28T03:26:56.647Z,101805.27
2022-11-28T03:29:40.981Z,101810.29
2022-11-28T03:32:13.647Z,101810.29
2022-11-28T03:34:47.817Z,101813.04
2022-11-28T03:37:20.144Z,101810.34
2022-11-28T03:39:52.733Z,101815.58
2022-11-28T03:42:25.191Z,101822.51
2022-11-28T03:45:03.361Z,101821.53
2022-11-28T03:47:36.473Z,101822.38
2022-11-28T03:50:09.282Z,101818.33
2022-11-28T03:52:41.888Z,101820.83
2022-11-28T03:55:14.285Z,101823.53
2022-11-28T03:58:01.966Z,101831.45
2022-11-28T04:00:34.538Z,101827.67
2022-11-28T04:03:13.074Z,101830.88
2022-11-28T04:05:48.698Z,101836.16
2022-11-28T04:08:27.440Z,101841.14
2022-11-28T04:10:59.964Z,101837.66
2022-11-28T04:13:35.542Z,101842.96
2022-11-28T04:16:08.765Z,101844.73
2022-11-28T04:18:57.612Z,101844.78
2022-11-28T04:21:30.683Z,101844.64
2022-11-28T04:24:09.381Z,101841.13
2022-11-28T04:26:42.578Z,101842.82
2022-11-28T04:29:14.999Z,101833.39
2022-11-28T04:31:48.801Z,101837.80
2022-11-28T04:34:21.516Z,101837.05
2022-11-28T04:36:54.219Z,101844.96
2022-11-28T04:39:27.389Z,101840.52
2022-11-28T04:42:05.541Z,101837.89
2022-11-28T04:44:38.439Z,101852.52
2022-11-28T04:47:09.703Z,101845.72
2022-11-28T04:49:41.210Z,101844.91
2022-11-28T04:52:29.892Z,101858.75
2022-11-28T04:55:09.618Z,101845.76
2022-11-28T04:57:43.292Z,101860.39
2022-11-28T05:00:15.800Z,101859.59
2022-11-28T05:02:48.629Z,101859.77
2022-11-28T05:05:21.716Z,101864.92
2022-11-28T05:07:53.666Z,101865.77
2022-11-28T05:10:24.927Z,101868.25
2022-11-28T05:12:57.368Z,101867.41
2022-11-28T05:15:28.727Z,101865.77
2022-11-28T05:18:00.222Z,101868.35
2022-11-28T05:20:31.672Z,101874.48
2022-11-28T05:23:04.107Z,101875.38
2022-11-28T05:25:35.786Z,101868.08
2022-11-28T05:28:07.095Z,101873.68
2022-11-28T05:30:38.130Z,101875.29
2022-11-28T05:33:09.481Z,101879.59
2022-11-28T05:35:42.416Z,101892.44
2022-11-28T05:38:13.921Z,101891.52
2022-11-28T05:40:45.523Z,101898.35
2022-11-28T05:43:17.619Z,101900.93
2022-11-28T05:45:49.875Z,101901.08
2022-11-28T05:48:21.243Z,101902.84
2022-11-28T05:50:52.608Z,101912.28
2022-11-28T05:53:24.558Z,101921.80
2022-11-28T05:55:57.202Z,101916.72
2022-11-28T05:58:28.543Z,101918.42
2022-11-28T06:01:00.249Z,101918.37
2022-11-28T06:03:32.911Z,101913.39
2022-11-28T06:06:05.767Z,101922.02
2022-11-28T06:08:37.821Z,101915.22
2022-11-28T06:11:09.920Z,101928.16
2022-11-28T06:13:43.827Z,101928.92
2022-11-28T06:16:16.961Z,101919.58
2022-11-28T06:18:48.513Z,101927.45
2022-11-28T06:21:19.863Z,101918.11
2022-11-28T06:23:51.431Z,101918.02
2022-11-28T06:26:24.353Z,101926.60
2022-11-28T06:28:56.860Z,101917.18
2022-11-28T06:31:30.044Z,101922.42
2022-11-28T06:34:01.906Z,101914.02
2022-11-28T06:36:33.471Z,101919.09
2022-11-28T06:39:06.266Z,101926.96
2022-11-28T06:41:39.398Z,101924.47
2022-11-28T06:44:17.431Z,101922.81
2022-11-28T06:46:49.386Z,101929.80
2022-11-28T06:49:20.655Z,101934.11
2022-11-28T06:51:52.656Z,101916.27
2022-11-28T06:54:24.686Z,101921.34
2022-11-28T06:56:56.032Z,101924.84
2022-11-28T06:59:28.474Z,101923.97
2022-11-28T07:02:07.247Z,101929.05
2022-11-28T07:04:35.220Z,101923.03
2022-11-28T07:07:06.507Z,101933.48
2022-11-28T07:09:37.989Z,101934.38
2022-11-28T07:12:09.247Z,101937.20
2022-11-28T07:14:40.777Z,101930.31
2022-11-28T07:17:12.515Z,101937.12
2022-11-28T07:19:43.675Z,101938.98
2022-11-28T07:22:15.334Z,101944.03
2022-11-28T07:24:49.087Z,101946.69
2022-11-28T07:27:20.603Z,101939.49
2022-11-28T07:29:52.373Z,101941.09
2022-11-28T07:32:23.671Z,101938.39
2022-11-28T07:34:56.355Z,101944.40
2022-11-28T07:37:27.722Z,101946.22
2022-11-28T07:39:59.045Z,101932.59
2022-11-28T07:42:31.762Z,101938.56
2022-11-28T07:45:09.316Z,101944.62
2022-11-28T07:47:40.470Z,101939.53
2022-11-28T07:50:11.444Z,101942.20
2022-11-28T07:52:42.878Z,101947.61
2022-11-28T07:55:14.005Z,101942.50
2022-11-28T07:57:45.175Z,101946.81
2022-11-28T08:00:18.191Z,101956.47
2022-11-28T08:02:49.164Z,101955.66
2022-11-28T08:05:20.591Z,101951.25
2022-11-28T08:07:51.803Z,101953.80
2022-11-28T08:10:22.916Z,101957.23
2022-11-28T08:12:53.786Z,101957.23
2022-11-28T08:15:25.197Z,101949.27
2022-11-28T08:17:56.575Z,101958.80
2022-11-28T08:20:27.609Z,101964.25
2022-11-28T08:22:58.831Z,101962.72
2022-11-28T08:25:30.695Z,101971.20
2022-11-28T08:28:01.865Z,101974.38
2022-11-28T08:30:32.824Z,101962.22
2022-11-28T08:33:04.641Z,101967.17
2022-11-28T08:35:36.612Z,101968.78
2022-11-28T08:38:07.824Z,101973.95
2022-11-28T08:40:39.093Z,101979.10
2022-11-28T08:43:10.474Z,101976.48
2022-11-28T08:45:41.869Z,101983.23
2022-11-28T08:48:12.810Z,101981.33
2022-11-28T08:50:50.776Z,101985.56
2022-11-28T08:53:23.157Z,101983.06
2022-11-28T08:55:54.503Z,101996.86
2022-11-28T08:58:25.516Z,101990.81
2022-11-28T09:00:56.845Z,101988.31
2022-11-28T09:03:28.543Z,101991.97
2022-11-28T09:06:03.092Z,101988.45
2022-11-28T09:08:34.438Z,101985.83
2022-11-28T09:11:07.562Z,101986.80
2022-11-28T09:13:39.769Z,101990.23
2022-11-28T09:16:11.471Z,101987.78
2022-11-28T09:18:42.913Z,101987.86
2022-11-28T09:21:16.109Z,101982.16
2022-11-28T09:23:48.840Z,101982.24
2022-11-28T09:26:22.426Z,101984.66
2022-11-28T09:28:54.103Z,101979.41
2022-11-28T09:31:26.174Z,101981.09
2022-11-28T09:33:57.996Z,101982.08
2022-11-28T09:36:29.321Z,101980.55
2022-11-28T09:39:02.039Z,101986.73
2022-11-28T09:41:34.398Z,101991.05
2022-11-28T09:44:09.807Z,101986.01
2022-11-28T09:46:41.535Z,101984.56
2022-11-28T09:49:17.210Z,101991.22
2022-11-28T09:51:52.801Z,101985.75
2022-11-28T09:54:29.312Z,101994.35
2022-11-28T09:57:01.448Z,101989.14
2022-11-28T09:59:32.947Z,101992.36
2022-11-28T10:02:05.216Z,101999.30
2022-11-28T10:04:38.034Z,102003.53
2022-11-28T10:07:14.095Z,102002.38
2022-11-28T10:09:53.023Z,101997.92
2022-11-28T10:12:25.695Z,101996.33
2022-11-28T10:15:14.478Z,102000.77
2022-11-28T10:17:50.627Z,101996.14
2022-11-28T10:20:29.251Z,101998.72
2022-11-28T10:23:02.303Z,101995.30
2022-11-28T10:25:37.899Z,101988.54
2022-11-28T10:28:11.419Z,101991.83
2022-11-28T10:30:44.182Z,102000.52
2022-11-28T10:33:19.946Z,101989.42
2022-11-28T10:35:55.371Z,101987.78
2022-11-28T10:38:29.154Z,101989.30
2022-11-28T10:41:20.023Z,101982.35
2022-11-28T10:43:52.590Z,101989.16
2022-11-28T10:46:25.412Z,101982.44
2022-11-28T10:49:01.696Z,101987.38
2022-11-28T10:51:46.273Z,101983.99
2022-11-28T10:54:19.084Z,101989.25
2022-11-28T10:56:51.934Z,101990.98
2022-11-28T10:59:36.639Z,101990.32
2022-11-28T11:02:21.009Z,101986.00
2022-11-28T11:04:52.389Z,101987.70
2022-11-28T11:07:31.452Z,101989.48
2022-11-28T11:10:22.158Z,101986.98
2022-11-28T11:12:54.225Z,101986.13
2022-11-28T11:15:33.115Z,101986.94
2022-11-28T11:18:05.467Z,101990.45
2022-11-28T11:20:40.243Z,101987.91
2022-11-28T11:23:18.519Z,101989.73
2022-11-28T11:25:54.489Z,102002.73
2022-11-28T11:28:27.150Z,102004.64
2022-11-28T11:31:03.092Z,101988.17
2022-11-28T11:33:35.966Z,101991.38
2022-11-28T11:36:08.762Z,101995.75
2022-11-28T11:38:40.432Z,102002.73
2022-11-28T11:41:30.905Z,101996.80
2022-11-28T11:44:18.972Z,101995.92
2022-11-28T11:46:57.499Z,101997.73
2022-11-28T11:49:29.392Z,102001.08
2022-11-28T11:52:02.427Z,101995.92
2022-11-28T11:54:33.874Z,101995.97
2022-11-28T11:57:31.515Z,101998.41
2022-11-28T11:59:40.775Z,102009.72
2022-11-28T12:02:22.881Z,102010.52
2022-11-28T12:04:55.754Z,102001.12
2022-11-28T12:07:28.891Z,102010.48
2022-11-28T12:12:34.885Z,102012.16
2022-11-28T12:15:08.508Z,102013.73
2022-11-28T12:17:50.095Z,102016.36
2022-11-28T12:20:33.242Z,102005.18
2022-11-28T12:23:25.012Z,102008.66
2022-11-28T12:26:00.893Z,102013.91
2022-11-28T12:28:51.925Z,102015.64
2022-11-28T12:31:24.289Z,102025.93
2022-11-28T12:34:06.591Z,102009.50
2022-11-28T12:36:39.115Z,102021.52
2022-11-28T12:39:20.342Z,102016.48
2022-11-28T12:41:55.337Z,102029.44
2022-11-28T12:44:27.671Z,102026.73
2022-11-28T12:47:02.918Z,102032.78
2022-11-28T12:49:35.992Z,102033.41
2022-11-28T12:52:17.474Z,102036.95
2022-11-28T12:54:59.252Z,102041.15
2022-11-28T12:57:33.548Z,102036.83
2022-11-28T13:00:09.210Z,102050.08
2022-11-28T13:02:41.802Z,102036.09
2022-11-28T13:05:14.129Z,102034.27
2022-11-28T13:07:49.411Z,102042.70
2022-11-28T13:10:27.786Z,102036.65
2022-11-28T13:13:06.540Z,102050.30
2022-11-28T13:15:48.261Z,102050.34
2022-11-28T13:18:24.016Z,102043.95
2022-11-28T13:21:03.634Z,102053.23
2022-11-28T13:23:53.169Z,102047.33
2022-11-28T13:26:28.944Z,102040.97
2022-11-28T13:29:05.077Z,102038.25
2022-11-28T13:31:40.990Z,102043.36
2022-11-28T13:34:19.571Z,102037.34
2022-11-28T13:39:29.243Z,102039.18
2022-11-28T13:42:21.797Z,102050.65
2022-11-28T13:44:38.797Z,102044.70
2022-11-28T13:47:18.153Z,102042.11
2022-11-28T13:49:50.723Z,102048.08
2022-11-28T13:52:31.466Z,102052.44
2022-11-28T13:55:03.136Z,102054.06
2022-11-28T13:57:39.030Z,102058.23
2022-11-28T14:00:22.776Z,102054.81
2022-11-28T14:02:55.759Z,102060.97
2022-11-28T14:05:28.904Z,102056.70
2022-11-28T14:08:00.553Z,102058.53
2022-11-28T14:10:42.772Z,102064.58
2022-11-28T14:13:15.223Z,102071.48
2022-11-28T14:15:48.111Z,102070.59
2022-11-28T14:21:13.238Z,102083.63
2022-11-28T14:23:46.084Z,102081.09
2022-11-28T14:26:35.110Z,102084.77
2022-11-28T14:29:07.910Z,102089.48
2022-11-28T14:31:55.200Z,102090.63
2022-11-28T14:34:35.200Z,102092.17
2022-11-28T14:37:24.178Z,102093.75
2022-11-28T14:39:56.515Z,102092.70
2022-11-28T14:42:59.995Z,102095.97
2022-11-28T14:45:08.372Z,102093.97
2022-11-28T14:47:39.531Z,102092.97
2022-11-28T14:50:17.510Z,102095.30
2022-11-28T14:52:51.363Z,102090.14
2022-11-28T14:55:23.137Z,102093.97
2022-11-28T14:57:56.687Z,102087.71
2022-11-28T15:00:30.028Z,102090.44
2022-11-28T15:03:05.876Z,102085.30
2022-11-28T15:05:44.483Z,102079.34
2022-11-28T15:08:22.985Z,102078.35
2022-11-28T15:11:11.219Z,102084.13
2022-11-28T15:13:44.471Z,102081.28
2022-11-28T15:16:17.523Z,102069.12
2022-11-28T15:18:50.799Z,102080.23
2022-11-28T15:21:23.087Z,102082.08
2022-11-28T15:23:56.343Z,102080.55
2022-11-28T15:26:30.917Z,102079.98
2022-11-28T15:29:09.590Z,102078.03
2022-11-28T15:31:42.267Z,102077.81
2022-11-28T15:34:15.115Z,102094.17
2022-11-28T15:36:46.609Z,102091.66
2022-11-28T15:39:25.021Z,102092.55
2022-11-28T15:42:00.766Z,102090.75
2022-11-28T15:44:32.739Z,102096.69
2022-11-28T15:47:05.696Z,102095.80
2022-11-28T15:49:38.261Z,102089.08
2022-11-28T15:52:11.088Z,102099.39
2022-11-28T15:54:43.222Z,102096.03
2022-11-28T15:57:26.108Z,102095.23
2022-11-28T15:59:57.269Z,102100.38
2022-11-28T16:02:30.183Z,102096.81
2022-11-28T16:05:13.001Z,102090.80
2022-11-28T16:07:45.260Z,102098.54
2022-11-28T16:10:26.816Z,102091.66
2022-11-28T16:13:02.791Z,102096.08
2022-11-28T16:15:33.877Z,102083.29
2022-11-28T16:18:05.734Z,102087.14
2022-11-28T16:20:38.378Z,102084.39
2022-11-28T16:23:10.622Z,102094.97
2022-11-28T16:25:41.726Z,102094.19
2022-11-28T16:28:32.357Z,102095.39
2022-11-28T16:31:03.479Z,102100.96
2022-11-28T16:33:39.310Z,102098.16
2022-11-28T16:36:20.513Z,102100.63
2022-11-28T16:38:53.384Z,102093.79
2022-11-28T16:41:27.377Z,102090.66
2022-11-28T16:44:06.433Z,102087.06
2022-11-28T16:46:38.995Z,102094.84
2022-11-28T16:49:12.418Z,102093.69
2022-11-28T16:51:44.794Z,102100.47
2022-11-28T16:54:24.253Z,102100.47
2022-11-28T16:56:59.749Z,102102.83
2022-11-28T16:59:31.318Z,102108.76
2022-11-28T17:02:04.616Z,102103.61
2022-11-28T17:04:35.970Z,102110.66
2022-11-28T17:07:09.170Z,102098.94
2022-11-28T17:09:42.161Z,102117.39
2022-11-28T17:12:14.945Z,102117.45
2022-11-28T17:14:46.253Z,102110.70
2022-11-28T17:17:18.454Z,102118.90
2022-11-28T17:19:49.550Z,102116.25
2022-11-28T17:22:22.098Z,102124.83
2022-11-28T17:24:54.528Z,102119.17
2022-11-28T17:27:25.776Z,102117.32
2022-11-28T17:29:56.751Z,102124.11
2022-11-28T17:32:27.690Z,102118.23
2022-11-28T17:35:00.163Z,102117.39
2022-11-28T17:37:31.993Z,102125.17
2022-11-28T17:40:20.587Z,102118.95
2022-11-28T17:42:51.627Z,102124.11
2022-11-28T17:45:23.138Z,102128.48
2022-11-28T17:47:54.599Z,102129.42
2022-11-28T17:50:25.983Z,102135.53
2022-11-28T17:52:56.902Z,102129.47
2022-11-28T17:55:28.039Z,102129.47
2022-11-28T17:57:59.565Z,102128.64
2022-11-28T18:00:33.007Z,102130.25
2022-11-28T18:03:04.319Z,102135.48
2022-11-28T18:05:39.205Z,102129.66
2022-11-28T18:08:10.679Z,102134.91
2022-11-28T18:10:41.976Z,102138.45
2022-11-28T18:13:16.899Z,102141.91
2022-11-28T18:15:48.045Z,102138.50
2022-11-28T18:18:19.169Z,102131.71
2022-11-28T18:20:50.220Z,102125.83
2022-11-28T18:23:21.636Z,102139.52
2022-11-28T18:25:52.707Z,102126.62
2022-11-28T18:28:24.244Z,102127.56
2022-11-28T18:30:55.438Z,102121.86
2022-11-28T18:33:27.060Z,102132.05
2022-11-28T18:36:00.130Z,102126.68
2022-11-28T18:38:31.428Z,102125.77
2022-11-28T18:41:03.907Z,102123.14
2022-11-28T18:43:35.102Z,102125.67
2022-11-28T18:46:08.091Z,102127.41
2022-11-28T18:48:39.736Z,102130.82
2022-11-28T18:51:14.441Z,102129.16
2022-11-28T18:53:47.016Z,102131.83
2022-11-28T18:56:19.091Z,102135.41
2022-11-28T18:58:53.432Z,102133.95
2022-11-28T19:01:30.629Z,102134.95
2022-11-28T19:04:04.121Z,102135.69
2022-11-28T19:06:36.000Z,102136.47
2022-11-28T19:09:09.559Z,102144.98
2022-11-28T19:11:41.099Z,102137.20
2022-11-28T19:14:13.712Z,102136.03
2022-11-28T19:16:45.311Z,102144.55
2022-11-28T19:19:18.342Z,102133.34
2022-11-28T19:21:51.092Z,102142.77
2022-11-28T19:24:21.981Z,102136.08
2022-11-28T19:26:53.111Z,102150.89
2022-11-28T19:29:24.647Z,102143.77
2022-11-28T19:31:56.621Z,102141.13
2022-11-28T19:34:27.890Z,102134.30
2022-11-28T19:36:58.801Z,102134.52
2022-11-28T19:39:29.915Z,102133.68
2022-11-28T19:42:03.939Z,102134.62
2022-11-28T19:44:34.726Z,102140.84
2022-11-28T19:47:07.088Z,102134.67
2022-11-28T19:49:38.383Z,102127.67
2022-11-28T19:52:09.756Z,102140.45
2022-11-28T19:54:42.025Z,102136.94
2022-11-28T19:57:13.074Z,102147.34
2022-11-28T19:59:44.358Z,102139.56
2022-11-28T20:02:16.123Z,102148.23
2022-11-28T20:04:47.205Z,102138.05
2022-11-28T20:07:18.204Z,102147.56
2022-11-28T20:09:49.182Z,102146.62
2022-11-28T20:12:20.268Z,102149.53
2022-11-28T20:14:51.091Z,102149.38
2022-11-28T20:17:21.935Z,102150.16
2022-11-28T20:19:53.043Z,102160.62
2022-11-28T20:22:25.087Z,102153.72
2022-11-28T20:24:56.257Z,102155.42
2022-11-28T20:27:27.159Z,102147.73
2022-11-28T20:29:58.745Z,102159.68
2022-11-28T20:32:31.412Z,102156.30
2022-11-28T20:35:02.347Z,102166.69
2022-11-28T20:37:33.516Z,102166.73
2022-11-28T20:40:04.397Z,102165.05
2022-11-28T20:42:39.617Z,102169.36
2022-11-28T20:45:08.278Z,102170.16
2022-11-28T20:47:39.058Z,102173.41
2022-11-28T20:50:10.301Z,102170.16
2022-11-28T20:52:41.141Z,102171.84
2022-11-28T20:55:12.193Z,102173.41
2022-11-28T20:57:43.115Z,102178.72
2022-11-28T21:00:14.383Z,102171.84
2022-11-28T21:02:46.221Z,102174.34
2022-11-28T21:05:17.107Z,102168.36
2022-11-28T21:07:47.907Z,102176.14
2022-11-28T21:10:19.263Z,102178.77
2022-11-28T21:12:50.320Z,102184.00
2022-11-28T21:15:21.134Z,102183.47
2022-11-28T21:17:52.098Z,102184.00
2022-11-28T21:20:23.125Z,102182.94
2022-11-28T21:22:54.347Z,102188.69
2022-11-28T21:25:25.415Z,102193.17
2022-11-28T21:27:56.236Z,102188.82
2022-11-28T21:30:27.045Z,102191.50
2022-11-28T21:32:57.827Z,102195.30
2022-11-28T21:35:29.101Z,102193.63
2022-11-28T21:37:59.966Z,102189.53
2022-11-28T21:40:30.794Z,102192.00
2022-11-28T21:43:01.644Z,102192.05
2022-11-28T21:45:34.127Z,102191.89
2022-11-28T21:48:06.000Z,102195.09
2022-11-28T21:50:36.746Z,102185.09
2022-11-28T21:53:07.763Z,102184.89
2022-11-28T21:55:39.192Z,102191.70
2022-11-28T21:58:10.519Z,102182.14
2022-11-28T22:00:54.158Z,102187.28
2022-11-28T22:03:14.628Z,102188.97
2022-11-28T22:05:45.744Z,102185.50
2022-11-28T22:08:16.706Z,102181.29
2022-11-28T22:10:48.037Z,102186.55
2022-11-28T22:13:19.183Z,102187.52
2022-11-28T22:15:50.402Z,102186.95
2022-11-28T22:18:21.452Z,102184.39
2022-11-28T22:20:53.369Z,102197.39
2022-11-28T22:23:24.211Z,102193.12
2022-11-28T22:25:55.543Z,102194.03
2022-11-28T22:28:26.649Z,102189.81
2022-11-28T22:30:57.636Z,102201.03
2022-11-28T22:33:28.433Z,102192.09
2022-11-28T22:36:11.033Z,102195.41
2022-11-28T22:38:42.639Z,102192.67
2022-11-28T22:41:15.891Z,102189.26
2022-11-28T22:43:47.587Z,102188.35
2022-11-28T22:46:20.010Z,102187.31
2022-11-28T22:48:52.184Z,102189.70
2022-11-28T22:51:25.326Z,102183.64
2022-11-28T22:53:58.113Z,102185.39
2022-11-28T22:56:31.813Z,102190.59
2022-11-28T22:59:05.159Z,102195.77
2022-11-28T23:01:36.492Z,102191.61
2022-11-28T23:04:07.403Z,102196.88
2022-11-28T23:06:38.289Z,102191.66
2022-11-28T23:09:09.948Z,102187.47
2022-11-28T23:11:41.278Z,102187.41
2022-11-28T23:14:14.099Z,102192.57
2022-11-28T23:16:46.047Z,102189.88
2022-11-28T23:19:18.067Z,102191.66
2022-11-28T23:21:49.988Z,102186.63
2022-11-28T23:24:23.259Z,102189.36
2022-11-28T23:26:54.936Z,102200.52
2022-11-28T23:29:26.756Z,102196.09
2022-11-28T23:31:58.477Z,102198.72
2022-11-28T23:34:30.880Z,102194.31
2022-11-28T23:37:02.814Z,102191.54
2022-11-28T23:39:34.565Z,102192.00
2022-11-28T23:42:09.957Z,102203.09
2022-11-28T23:44:41.043Z,102195.69
2022-11-28T23:47:12.088Z,102198.01
2022-11-28T23:49:43.385Z,102202.77
2022-11-28T23:52:14.331Z,102193.95
2022-11-28T23:54:45.679Z,102191.22
2022-11-28T23:57:16.891Z,102190.44
2022-11-28T23:59:47.708Z,102198.33
